sensor_id;sensor_type;location;lat;lon;timestamp;temperature;humidity
7411;DHT22;3747;48.628;9.058;2022-09-09T00:01:04;14.40;99.90
7411;DHT22;3747;48.628;9.058;2022-09-09T00:03:42;14.40;99.90
7411;DHT22;3747;48.628;9.058;2022-09-09T00:06:16;14.50;99.90
7411;DHT22;3747;48.628;9.058;2022-09-09T00:08:54;14.50;99.90
7411;DHT22;3747;48.628;9.058;2022-09-09T00:11:29;14.70;99.90
7411;DHT22;3747;48.628;9.058;2022-09-09T00:14:00;14.80;99.90
7411;DHT22;3747;48.628;9.058;2022-09-09T00:16:32;14.80;99.90
7411;DHT22;3747;48.628;9.058;2022-09-09T00:19:04;14.80;99.90
7411;DHT22;3747;48.628;9.058;2022-09-09T00:21:35;14.80;99.90
7411;DHT22;3747;48.628;9.058;2022-09-09T00:24:09;14.80;99.90
7411;DHT22;3747;48.628;9.058;2022-09-09T00:26:43;14.80;99.90
7411;DHT22;3747;48.628;9.058;2022-09-09T00:29:20;14.70;99.90
7411;DHT22;3747;48.628;9.058;2022-09-09T00:31:51;14.60;99.90
7411;DHT22;3747;48.628;9.058;2022-09-09T00:34:23;14.50;99.90
7411;DHT22;3747;48.628;9.058;2022-09-09T00:36:52;14.50;99.90
7411;DHT22;3747;48.628;9.058;2022-09-09T00:39:27;14.50;99.90
7411;DHT22;3747;48.628;9.058;2022-09-09T00:42:08;14.60;99.90
7411;DHT22;3747;48.628;9.058;2022-09-09T00:44:38;14.50;99.90
7411;DHT22;3747;48.628;9.058;2022-09-09T00:47:28;14.60;99.90
7411;DHT22;3747;48.628;9.058;2022-09-09T00:50:01;14.70;99.90
7411;DHT22;3747;48.628;9.058;2022-09-09T00:52:36;14.70;99.90
7411;DHT22;3747;48.628;9.058;2022-09-09T00:55:10;14.60;99.90
7411;DHT22;3747;48.628;9.058;2022-09-09T00:57:39;14.60;99.90
7411;DHT22;3747;48.628;9.058;2022-09-09T01:00:22;14.60;99.90
7411;DHT22;3747;48.628;9.058;2022-09-09T01:02:56;14.50;99.90
7411;DHT22;3747;48.628;9.058;2022-09-09T01:05:36;14.50;99.90
7411;DHT22;3747;48.628;9.058;2022-09-09T01:08:11;14.50;99.90
7411;DHT22;3747;48.628;9.058;2022-09-09T01:10:48;14.40;99.90
7411;DHT22;3747;48.628;9.058;2022-09-09T01:13:22;14.40;99.90
7411;DHT22;3747;48.628;9.058;2022-09-09T01:15:50;14.40;99.90
7411;DHT22;3747;48.628;9.058;2022-09-09T01:18:21;14.40;99.90
7411;DHT22;3747;48.628;9.058;2022-09-09T01:20:55;14.40;99.90
7411;DHT22;3747;48.628;9.058;2022-09-09T01:23:45;14.30;99.90
7411;DHT22;3747;48.628;9.058;2022-09-09T01:26:19;14.30;99.90
7411;DHT22;3747;48.628;9.058;2022-09-09T01:28:49;14.30;99.90
7411;DHT22;3747;48.628;9.058;2022-09-09T01:31:20;14.20;99.90
7411;DHT22;3747;48.628;9.058;2022-09-09T01:33:48;14.10;99.90
7411;DHT22;3747;48.628;9.058;2022-09-09T01:36:19;14.10;99.90
7411;DHT22;3747;48.628;9.058;2022-09-09T01:38:48;13.90;99.90
7411;DHT22;3747;48.628;9.058;2022-09-09T01:41:16;13.70;99.90
7411;DHT22;3747;48.628;9.058;2022-09-09T01:43:43;13.60;99.90
7411;DHT22;3747;48.628;9.058;2022-09-09T01:46:11;13.60;99.90
7411;DHT22;3747;48.628;9.058;2022-09-09T01:48:39;13.50;99.90
7411;DHT22;3747;48.628;9.058;2022-09-09T01:51:07;13.50;99.90
7411;DHT22;3747;48.628;9.058;2022-09-09T01:53:34;13.40;99.90
7411;DHT22;3747;48.628;9.058;2022-09-09T01:56:13;13.30;99.90
7411;DHT22;3747;48.628;9.058;2022-09-09T01:58:53;13.30;99.90
7411;DHT22;3747;48.628;9.058;2022-09-09T02:01:32;13.20;99.90
7411;DHT22;3747;48.628;9.058;2022-09-09T02:04:07;13.10;99.90
7411;DHT22;3747;48.628;9.058;2022-09-09T02:06:38;13.20;99.90
7411;DHT22;3747;48.628;9.058;2022-09-09T02:09:07;13.30;99.90
7411;DHT22;3747;48.628;9.058;2022-09-09T02:11:38;13.40;99.90
7411;DHT22;3747;48.628;9.058;2022-09-09T02:14:11;13.40;99.90
7411;DHT22;3747;48.628;9.058;2022-09-09T02:16:41;13.40;99.90
7411;DHT22;3747;48.628;9.058;2022-09-09T02:19:11;13.40;99.90
7411;DHT22;3747;48.628;9.058;2022-09-09T02:21:40;13.40;99.90
7411;DHT22;3747;48.628;9.058;2022-09-09T02:24:09;13.40;99.90
7411;DHT22;3747;48.628;9.058;2022-09-09T02:26:39;13.30;99.90
7411;DHT22;3747;48.628;9.058;2022-09-09T02:29:12;13.30;99.90
7411;DHT22;3747;48.628;9.058;2022-09-09T02:31:41;13.30;99.90
7411;DHT22;3747;48.628;9.058;2022-09-09T02:34:09;13.30;99.90
7411;DHT22;3747;48.628;9.058;2022-09-09T02:36:38;13.30;99.90
7411;DHT22;3747;48.628;9.058;2022-09-09T02:39:07;13.20;99.90
7411;DHT22;3747;48.628;9.058;2022-09-09T02:41:37;13.20;99.90
7411;DHT22;3747;48.628;9.058;2022-09-09T02:44:05;13.10;99.90
7411;DHT22;3747;48.628;9.058;2022-09-09T02:47:05;13.10;99.90
7411;DHT22;3747;48.628;9.058;2022-09-09T02:49:39;13.20;99.90
7411;DHT22;3747;48.628;9.058;2022-09-09T02:52:11;13.10;99.90
7411;DHT22;3747;48.628;9.058;2022-09-09T02:54:41;13.30;99.90
7411;DHT22;3747;48.628;9.058;2022-09-09T02:57:11;13.40;99.90
7411;DHT22;3747;48.628;9.058;2022-09-09T02:59:38;13.40;99.90
7411;DHT22;3747;48.628;9.058;2022-09-09T03:02:06;13.40;99.90
7411;DHT22;3747;48.628;9.058;2022-09-09T03:04:35;13.40;99.90
7411;DHT22;3747;48.628;9.058;2022-09-09T03:07:02;13.40;99.90
7411;DHT22;3747;48.628;9.058;2022-09-09T03:09:30;13.40;99.90
7411;DHT22;3747;48.628;9.058;2022-09-09T03:11:56;13.30;99.90
7411;DHT22;3747;48.628;9.058;2022-09-09T03:14:23;13.20;99.90
7411;DHT22;3747;48.628;9.058;2022-09-09T03:16:50;13.20;99.90
7411;DHT22;3747;48.628;9.058;2022-09-09T03:19:19;13.20;99.90
7411;DHT22;3747;48.628;9.058;2022-09-09T03:21:46;13.30;99.90
7411;DHT22;3747;48.628;9.058;2022-09-09T03:24:12;13.30;99.90
7411;DHT22;3747;48.628;9.058;2022-09-09T03:26:40;13.20;99.90
7411;DHT22;3747;48.628;9.058;2022-09-09T03:29:10;13.20;99.90
7411;DHT22;3747;48.628;9.058;2022-09-09T03:31:38;13.00;99.90
7411;DHT22;3747;48.628;9.058;2022-09-09T03:34:05;12.80;99.90
7411;DHT22;3747;48.628;9.058;2022-09-09T03:36:33;12.70;99.90
7411;DHT22;3747;48.628;9.058;2022-09-09T03:39:00;12.50;99.90
7411;DHT22;3747;48.628;9.058;2022-09-09T03:41:28;12.40;99.90
7411;DHT22;3747;48.628;9.058;2022-09-09T03:43:55;12.30;99.90
7411;DHT22;3747;48.628;9.058;2022-09-09T03:46:24;12.30;99.90
7411;DHT22;3747;48.628;9.058;2022-09-09T03:48:51;12.50;99.90
7411;DHT22;3747;48.628;9.058;2022-09-09T03:51:18;12.70;99.90
7411;DHT22;3747;48.628;9.058;2022-09-09T03:53:46;12.70;99.90
7411;DHT22;3747;48.628;9.058;2022-09-09T03:56:13;12.60;99.90
7411;DHT22;3747;48.628;9.058;2022-09-09T03:58:40;12.60;99.90
7411;DHT22;3747;48.628;9.058;2022-09-09T04:01:09;12.50;99.90
7411;DHT22;3747;48.628;9.058;2022-09-09T04:03:36;12.40;99.90
7411;DHT22;3747;48.628;9.058;2022-09-09T04:06:04;12.30;99.90
7411;DHT22;3747;48.628;9.058;2022-09-09T04:08:32;12.20;99.90
7411;DHT22;3747;48.628;9.058;2022-09-09T04:11:00;12.30;99.90
7411;DHT22;3747;48.628;9.058;2022-09-09T04:13:30;12.30;99.90
7411;DHT22;3747;48.628;9.058;2022-09-09T04:15:58;12.30;99.90
7411;DHT22;3747;48.628;9.058;2022-09-09T04:18:26;12.30;99.90
7411;DHT22;3747;48.628;9.058;2022-09-09T04:20:54;12.40;99.90
7411;DHT22;3747;48.628;9.058;2022-09-09T04:23:23;12.40;99.90
7411;DHT22;3747;48.628;9.058;2022-09-09T04:25:52;12.50;99.90
7411;DHT22;3747;48.628;9.058;2022-09-09T04:28:22;12.70;99.90
7411;DHT22;3747;48.628;9.058;2022-09-09T04:30:49;12.70;99.90
7411;DHT22;3747;48.628;9.058;2022-09-09T04:33:15;12.80;99.90
7411;DHT22;3747;48.628;9.058;2022-09-09T04:35:44;12.80;99.90
7411;DHT22;3747;48.628;9.058;2022-09-09T04:38:11;12.70;99.90
7411;DHT22;3747;48.628;9.058;2022-09-09T04:40:38;12.60;99.90
7411;DHT22;3747;48.628;9.058;2022-09-09T04:43:09;12.60;99.90
7411;DHT22;3747;48.628;9.058;2022-09-09T04:45:37;12.60;99.90
7411;DHT22;3747;48.628;9.058;2022-09-09T04:48:05;12.60;99.90
7411;DHT22;3747;48.628;9.058;2022-09-09T04:50:32;12.70;99.90
7411;DHT22;3747;48.628;9.058;2022-09-09T04:53:00;12.70;99.90
7411;DHT22;3747;48.628;9.058;2022-09-09T04:55:27;12.80;99.90
7411;DHT22;3747;48.628;9.058;2022-09-09T04:57:54;12.70;99.90
7411;DHT22;3747;48.628;9.058;2022-09-09T05:00:20;12.70;99.90
7411;DHT22;3747;48.628;9.058;2022-09-09T05:02:48;12.70;99.90
7411;DHT22;3747;48.628;9.058;2022-09-09T05:05:16;12.70;99.90
7411;DHT22;3747;48.628;9.058;2022-09-09T05:07:44;12.70;99.90
7411;DHT22;3747;48.628;9.058;2022-09-09T05:10:11;12.70;99.90
7411;DHT22;3747;48.628;9.058;2022-09-09T05:12:39;12.80;99.90
7411;DHT22;3747;48.628;9.058;2022-09-09T05:15:07;12.80;99.90
7411;DHT22;3747;48.628;9.058;2022-09-09T05:17:33;12.80;99.90
7411;DHT22;3747;48.628;9.058;2022-09-09T05:20:02;12.90;99.90
7411;DHT22;3747;48.628;9.058;2022-09-09T05:22:29;12.90;99.90
7411;DHT22;3747;48.628;9.058;2022-09-09T05:24:56;13.00;99.90
7411;DHT22;3747;48.628;9.058;2022-09-09T05:27:23;13.10;99.90
7411;DHT22;3747;48.628;9.058;2022-09-09T05:29:50;13.20;99.90
7411;DHT22;3747;48.628;9.058;2022-09-09T05:32:17;13.30;99.90
7411;DHT22;3747;48.628;9.058;2022-09-09T05:34:44;13.40;99.90
7411;DHT22;3747;48.628;9.058;2022-09-09T05:37:13;13.50;99.90
7411;DHT22;3747;48.628;9.058;2022-09-09T05:39:40;13.60;99.90
7411;DHT22;3747;48.628;9.058;2022-09-09T05:42:06;13.60;99.90
7411;DHT22;3747;48.628;9.058;2022-09-09T05:44:33;13.70;99.90
7411;DHT22;3747;48.628;9.058;2022-09-09T05:47:00;13.70;99.90
7411;DHT22;3747;48.628;9.058;2022-09-09T05:49:26;13.70;99.90
7411;DHT22;3747;48.628;9.058;2022-09-09T05:51:53;13.80;99.90
7411;DHT22;3747;48.628;9.058;2022-09-09T05:54:21;13.80;99.90
7411;DHT22;3747;48.628;9.058;2022-09-09T05:56:48;14.00;99.90
7411;DHT22;3747;48.628;9.058;2022-09-09T05:59:16;13.90;99.90
7411;DHT22;3747;48.628;9.058;2022-09-09T06:01:43;14.10;99.90
7411;DHT22;3747;48.628;9.058;2022-09-09T06:04:10;14.10;99.90
7411;DHT22;3747;48.628;9.058;2022-09-09T06:06:38;14.20;99.90
7411;DHT22;3747;48.628;9.058;2022-09-09T06:09:07;14.20;99.90
7411;DHT22;3747;48.628;9.058;2022-09-09T06:11:38;14.30;99.90
7411;DHT22;3747;48.628;9.058;2022-09-09T06:14:05;14.40;99.90
7411;DHT22;3747;48.628;9.058;2022-09-09T06:16:32;14.30;99.90
7411;DHT22;3747;48.628;9.058;2022-09-09T06:18:59;14.40;99.90
7411;DHT22;3747;48.628;9.058;2022-09-09T06:21:28;14.40;99.90
7411;DHT22;3747;48.628;9.058;2022-09-09T06:23:55;14.40;99.90
7411;DHT22;3747;48.628;9.058;2022-09-09T06:26:23;14.50;99.90
7411;DHT22;3747;48.628;9.058;2022-09-09T06:28:54;14.60;99.90
7411;DHT22;3747;48.628;9.058;2022-09-09T06:31:22;14.70;99.90
7411;DHT22;3747;48.628;9.058;2022-09-09T06:33:50;14.90;99.90
7411;DHT22;3747;48.628;9.058;2022-09-09T06:36:18;15.00;99.90
7411;DHT22;3747;48.628;9.058;2022-09-09T06:38:45;15.10;99.90
7411;DHT22;3747;48.628;9.058;2022-09-09T06:41:14;15.20;99.90
7411;DHT22;3747;48.628;9.058;2022-09-09T06:43:42;15.40;99.90
7411;DHT22;3747;48.628;9.058;2022-09-09T06:46:12;15.50;99.90
7411;DHT22;3747;48.628;9.058;2022-09-09T06:48:39;15.60;99.90
7411;DHT22;3747;48.628;9.058;2022-09-09T06:51:08;15.80;99.90
7411;DHT22;3747;48.628;9.058;2022-09-09T06:53:37;15.90;99.90
7411;DHT22;3747;48.628;9.058;2022-09-09T06:56:18;15.90;99.90
7411;DHT22;3747;48.628;9.058;2022-09-09T06:58:46;16.00;99.90
7411;DHT22;3747;48.628;9.058;2022-09-09T07:01:16;16.10;99.90
7411;DHT22;3747;48.628;9.058;2022-09-09T07:03:46;16.20;99.90
7411;DHT22;3747;48.628;9.058;2022-09-09T07:06:15;16.40;99.90
7411;DHT22;3747;48.628;9.058;2022-09-09T07:08:42;16.40;99.90
7411;DHT22;3747;48.628;9.058;2022-09-09T07:11:09;16.30;99.90
7411;DHT22;3747;48.628;9.058;2022-09-09T07:13:36;16.40;99.90
7411;DHT22;3747;48.628;9.058;2022-09-09T07:16:06;16.50;99.90
7411;DHT22;3747;48.628;9.058;2022-09-09T07:18:35;16.60;99.90
7411;DHT22;3747;48.628;9.058;2022-09-09T07:21:04;16.80;99.90
7411;DHT22;3747;48.628;9.058;2022-09-09T07:23:32;16.80;99.90
7411;DHT22;3747;48.628;9.058;2022-09-09T07:26:00;16.80;99.90
7411;DHT22;3747;48.628;9.058;2022-09-09T07:28:27;17.00;99.90
7411;DHT22;3747;48.628;9.058;2022-09-09T07:30:55;17.30;99.90
7411;DHT22;3747;48.628;9.058;2022-09-09T07:33:22;17.40;99.90
7411;DHT22;3747;48.628;9.058;2022-09-09T07:35:51;17.80;99.90
7411;DHT22;3747;48.628;9.058;2022-09-09T07:38:18;18.30;99.90
7411;DHT22;3747;48.628;9.058;2022-09-09T07:40:45;18.90;99.90
7411;DHT22;3747;48.628;9.058;2022-09-09T07:43:12;18.90;99.90
7411;DHT22;3747;48.628;9.058;2022-09-09T07:45:39;19.10;99.90
7411;DHT22;3747;48.628;9.058;2022-09-09T07:48:08;19.50;99.90
7411;DHT22;3747;48.628;9.058;2022-09-09T07:50:35;19.10;99.90
7411;DHT22;3747;48.628;9.058;2022-09-09T07:53:03;19.30;99.90
7411;DHT22;3747;48.628;9.058;2022-09-09T07:55:31;19.20;99.90
7411;DHT22;3747;48.628;9.058;2022-09-09T07:57:59;19.00;99.90
7411;DHT22;3747;48.628;9.058;2022-09-09T08:00:26;18.50;99.90
7411;DHT22;3747;48.628;9.058;2022-09-09T08:02:54;18.70;99.90
7411;DHT22;3747;48.628;9.058;2022-09-09T08:05:21;19.10;99.90
7411;DHT22;3747;48.628;9.058;2022-09-09T08:07:48;19.70;99.90
7411;DHT22;3747;48.628;9.058;2022-09-09T08:10:16;20.00;99.90
7411;DHT22;3747;48.628;9.058;2022-09-09T08:12:44;20.10;99.90
7411;DHT22;3747;48.628;9.058;2022-09-09T08:15:11;19.80;99.90
7411;DHT22;3747;48.628;9.058;2022-09-09T08:17:38;19.80;99.90
7411;DHT22;3747;48.628;9.058;2022-09-09T08:20:05;20.10;99.90
7411;DHT22;3747;48.628;9.058;2022-09-09T08:22:32;20.30;99.90
7411;DHT22;3747;48.628;9.058;2022-09-09T08:24:59;20.40;99.90
7411;DHT22;3747;48.628;9.058;2022-09-09T08:27:28;20.90;99.90
7411;DHT22;3747;48.628;9.058;2022-09-09T08:29:55;21.30;99.90
7411;DHT22;3747;48.628;9.058;2022-09-09T08:32:22;21.20;99.90
7411;DHT22;3747;48.628;9.058;2022-09-09T08:34:49;21.20;99.90
7411;DHT22;3747;48.628;9.058;2022-09-09T08:37:16;21.20;99.90
7411;DHT22;3747;48.628;9.058;2022-09-09T08:39:43;21.00;99.90
7411;DHT22;3747;48.628;9.058;2022-09-09T08:42:35;21.50;99.90
7411;DHT22;3747;48.628;9.058;2022-09-09T08:45:21;20.80;99.90
7411;DHT22;3747;48.628;9.058;2022-09-09T08:48:04;20.60;99.90
7411;DHT22;3747;48.628;9.058;2022-09-09T08:50:35;21.40;99.90
7411;DHT22;3747;48.628;9.058;2022-09-09T08:53:08;22.40;99.90
7411;DHT22;3747;48.628;9.058;2022-09-09T08:55:40;23.00;99.90
7411;DHT22;3747;48.628;9.058;2022-09-09T08:58:13;23.60;99.90
7411;DHT22;3747;48.628;9.058;2022-09-09T09:00:48;23.80;99.90
7411;DHT22;3747;48.628;9.058;2022-09-09T09:03:24;25.10;99.90
7411;DHT22;3747;48.628;9.058;2022-09-09T09:06:01;24.70;99.90
7411;DHT22;3747;48.628;9.058;2022-09-09T09:08:36;24.70;99.90
7411;DHT22;3747;48.628;9.058;2022-09-09T09:11:04;25.50;99.90
7411;DHT22;3747;48.628;9.058;2022-09-09T09:13:37;25.90;99.90
7411;DHT22;3747;48.628;9.058;2022-09-09T09:16:13;25.90;99.90
7411;DHT22;3747;48.628;9.058;2022-09-09T09:18:41;25.60;99.90
7411;DHT22;3747;48.628;9.058;2022-09-09T09:21:12;23.70;99.90
7411;DHT22;3747;48.628;9.058;2022-09-09T09:23:44;22.70;99.90
7411;DHT22;3747;48.628;9.058;2022-09-09T09:26:12;22.50;99.90
7411;DHT22;3747;48.628;9.058;2022-09-09T09:28:40;21.90;99.90
7411;DHT22;3747;48.628;9.058;2022-09-09T09:31:09;21.70;99.90
7411;DHT22;3747;48.628;9.058;2022-09-09T09:33:45;22.10;99.90
7411;DHT22;3747;48.628;9.058;2022-09-09T09:36:13;21.30;99.90
7411;DHT22;3747;48.628;9.058;2022-09-09T09:38:52;22.30;99.90
7411;DHT22;3747;48.628;9.058;2022-09-09T09:41:30;23.80;99.90
7411;DHT22;3747;48.628;9.058;2022-09-09T09:44:04;24.70;99.90
7411;DHT22;3747;48.628;9.058;2022-09-09T09:46:44;24.40;99.90
7411;DHT22;3747;48.628;9.058;2022-09-09T09:49:18;25.00;99.90
7411;DHT22;3747;48.628;9.058;2022-09-09T09:51:48;24.60;99.90
7411;DHT22;3747;48.628;9.058;2022-09-09T09:54:19;24.30;99.90
7411;DHT22;3747;48.628;9.058;2022-09-09T09:56:48;23.50;99.90
7411;DHT22;3747;48.628;9.058;2022-09-09T09:59:22;22.40;99.90
7411;DHT22;3747;48.628;9.058;2022-09-09T10:01:49;22.00;99.90
7411;DHT22;3747;48.628;9.058;2022-09-09T10:04:19;22.00;99.90
7411;DHT22;3747;48.628;9.058;2022-09-09T10:06:46;21.30;99.90
7411;DHT22;3747;48.628;9.058;2022-09-09T10:09:23;21.20;99.90
7411;DHT22;3747;48.628;9.058;2022-09-09T10:11:55;21.00;99.90
7411;DHT22;3747;48.628;9.058;2022-09-09T10:14:29;21.10;99.90
7411;DHT22;3747;48.628;9.058;2022-09-09T10:17:13;21.20;99.90
7411;DHT22;3747;48.628;9.058;2022-09-09T10:19:50;21.60;99.90
7411;DHT22;3747;48.628;9.058;2022-09-09T10:22:25;21.60;99.90
7411;DHT22;3747;48.628;9.058;2022-09-09T10:25:19;22.30;99.90
7411;DHT22;3747;48.628;9.058;2022-09-09T10:27:55;22.50;99.90
7411;DHT22;3747;48.628;9.058;2022-09-09T10:30:31;23.20;99.90
7411;DHT22;3747;48.628;9.058;2022-09-09T10:33:04;24.30;99.90
7411;DHT22;3747;48.628;9.058;2022-09-09T10:35:37;24.40;99.90
7411;DHT22;3747;48.628;9.058;2022-09-09T10:38:17;24.30;99.90
7411;DHT22;3747;48.628;9.058;2022-09-09T10:41:02;24.40;99.90
7411;DHT22;3747;48.628;9.058;2022-09-09T10:43:45;24.60;99.90
7411;DHT22;3747;48.628;9.058;2022-09-09T10:46:21;24.30;99.90
7411;DHT22;3747;48.628;9.058;2022-09-09T10:49:07;23.80;99.90
7411;DHT22;3747;48.628;9.058;2022-09-09T10:51:44;24.00;99.90
7411;DHT22;3747;48.628;9.058;2022-09-09T10:54:24;24.60;99.90
7411;DHT22;3747;48.628;9.058;2022-09-09T10:56:58;24.90;99.90
7411;DHT22;3747;48.628;9.058;2022-09-09T10:59:27;25.90;99.90
7411;DHT22;3747;48.628;9.058;2022-09-09T11:02:00;24.90;99.90
7411;DHT22;3747;48.628;9.058;2022-09-09T11:04:34;23.10;99.90
7411;DHT22;3747;48.628;9.058;2022-09-09T11:07:06;21.30;99.90
7411;DHT22;3747;48.628;9.058;2022-09-09T11:09:38;20.50;99.90
7411;DHT22;3747;48.628;9.058;2022-09-09T11:12:10;19.60;99.90
7411;DHT22;3747;48.628;9.058;2022-09-09T11:14:43;18.80;99.90
7411;DHT22;3747;48.628;9.058;2022-09-09T11:17:15;18.40;99.90
7411;DHT22;3747;48.628;9.058;2022-09-09T11:19:47;18.40;99.90
7411;DHT22;3747;48.628;9.058;2022-09-09T11:22:20;18.30;99.90
7411;DHT22;3747;48.628;9.058;2022-09-09T11:24:51;18.10;99.90
7411;DHT22;3747;48.628;9.058;2022-09-09T11:27:22;18.10;99.90
7411;DHT22;3747;48.628;9.058;2022-09-09T11:30:16;18.20;99.90
7411;DHT22;3747;48.628;9.058;2022-09-09T11:36:11;18.70;99.90
7411;DHT22;3747;48.628;9.058;2022-09-09T11:38:44;19.00;99.90
7411;DHT22;3747;48.628;9.058;2022-09-09T11:41:12;18.90;99.90
7411;DHT22;3747;48.628;9.058;2022-09-09T11:43:42;18.50;99.90
7411;DHT22;3747;48.628;9.058;2022-09-09T11:46:10;18.40;99.90
7411;DHT22;3747;48.628;9.058;2022-09-09T11:48:39;18.30;99.90
7411;DHT22;3747;48.628;9.058;2022-09-09T11:51:11;18.40;99.90
7411;DHT22;3747;48.628;9.058;2022-09-09T11:53:48;18.50;99.90
7411;DHT22;3747;48.628;9.058;2022-09-09T11:56:25;19.10;99.90
7411;DHT22;3747;48.628;9.058;2022-09-09T11:59:00;20.70;99.90
7411;DHT22;3747;48.628;9.058;2022-09-09T12:01:37;20.30;99.90
7411;DHT22;3747;48.628;9.058;2022-09-09T12:07:03;21.70;99.90
7411;DHT22;3747;48.628;9.058;2022-09-09T12:09:52;22.30;99.90
7411;DHT22;3747;48.628;9.058;2022-09-09T12:12:25;22.80;99.90
7411;DHT22;3747;48.628;9.058;2022-09-09T12:14:58;22.90;99.90
7411;DHT22;3747;48.628;9.058;2022-09-09T12:17:27;23.10;99.90
7411;DHT22;3747;48.628;9.058;2022-09-09T12:20:06;23.30;99.90
7411;DHT22;3747;48.628;9.058;2022-09-09T12:22:43;23.10;99.90
7411;DHT22;3747;48.628;9.058;2022-09-09T12:25:20;22.20;99.90
7411;DHT22;3747;48.628;9.058;2022-09-09T12:28:02;21.10;99.90
7411;DHT22;3747;48.628;9.058;2022-09-09T12:30:34;20.60;99.90
7411;DHT22;3747;48.628;9.058;2022-09-09T12:33:10;20.20;99.90
7411;DHT22;3747;48.628;9.058;2022-09-09T12:35:37;20.60;99.90
7411;DHT22;3747;48.628;9.058;2022-09-09T12:38:07;20.80;99.90
7411;DHT22;3747;48.628;9.058;2022-09-09T12:40:38;21.80;99.90
7411;DHT22;3747;48.628;9.058;2022-09-09T12:43:17;22.10;99.90
7411;DHT22;3747;48.628;9.058;2022-09-09T12:45:45;22.30;99.90
7411;DHT22;3747;48.628;9.058;2022-09-09T12:48:13;22.20;99.90
7411;DHT22;3747;48.628;9.058;2022-09-09T12:50:45;21.60;99.90
7411;DHT22;3747;48.628;9.058;2022-09-09T12:53:19;20.60;99.90
7411;DHT22;3747;48.628;9.058;2022-09-09T12:55:50;20.00;99.90
7411;DHT22;3747;48.628;9.058;2022-09-09T12:58:19;19.90;99.90
7411;DHT22;3747;48.628;9.058;2022-09-09T13:00:49;20.00;99.90
7411;DHT22;3747;48.628;9.058;2022-09-09T13:03:18;19.90;99.90
7411;DHT22;3747;48.628;9.058;2022-09-09T13:05:46;19.70;99.90
7411;DHT22;3747;48.628;9.058;2022-09-09T13:08:15;19.90;99.90
7411;DHT22;3747;48.628;9.058;2022-09-09T13:10:47;20.30;99.90
7411;DHT22;3747;48.628;9.058;2022-09-09T13:13:16;21.30;99.90
7411;DHT22;3747;48.628;9.058;2022-09-09T13:15:49;22.30;99.90
7411;DHT22;3747;48.628;9.058;2022-09-09T13:18:20;22.80;99.90
7411;DHT22;3747;48.628;9.058;2022-09-09T13:20:48;23.30;99.90
7411;DHT22;3747;48.628;9.058;2022-09-09T13:23:18;23.40;99.90
7411;DHT22;3747;48.628;9.058;2022-09-09T13:25:54;23.80;99.90
7411;DHT22;3747;48.628;9.058;2022-09-09T13:28:22;24.30;99.90
7411;DHT22;3747;48.628;9.058;2022-09-09T13:30:56;23.70;99.90
7411;DHT22;3747;48.628;9.058;2022-09-09T13:33:30;23.70;99.90
7411;DHT22;3747;48.628;9.058;2022-09-09T13:36:00;24.20;99.90
7411;DHT22;3747;48.628;9.058;2022-09-09T13:38:32;24.40;99.90
7411;DHT22;3747;48.628;9.058;2022-09-09T13:41:01;24.00;99.90
7411;DHT22;3747;48.628;9.058;2022-09-09T13:43:31;23.60;99.90
7411;DHT22;3747;48.628;9.058;2022-09-09T13:45:59;23.20;99.90
7411;DHT22;3747;48.628;9.058;2022-09-09T13:48:27;23.60;99.90
7411;DHT22;3747;48.628;9.058;2022-09-09T13:51:00;23.80;99.90
7411;DHT22;3747;48.628;9.058;2022-09-09T13:53:29;24.20;99.90
7411;DHT22;3747;48.628;9.058;2022-09-09T13:55:57;24.80;99.90
7411;DHT22;3747;48.628;9.058;2022-09-09T13:58:24;25.30;99.90
7411;DHT22;3747;48.628;9.058;2022-09-09T14:00:52;25.10;99.90
7411;DHT22;3747;48.628;9.058;2022-09-09T14:03:19;25.50;99.90
7411;DHT22;3747;48.628;9.058;2022-09-09T14:05:46;25.50;99.90
7411;DHT22;3747;48.628;9.058;2022-09-09T14:08:20;25.10;99.90
7411;DHT22;3747;48.628;9.058;2022-09-09T14:10:49;24.90;99.90
7411;DHT22;3747;48.628;9.058;2022-09-09T14:13:16;25.70;99.90
7411;DHT22;3747;48.628;9.058;2022-09-09T14:15:42;25.60;99.50
7411;DHT22;3747;48.628;9.058;2022-09-09T14:18:11;25.20;99.40
7411;DHT22;3747;48.628;9.058;2022-09-09T14:20:38;25.40;99.90
7411;DHT22;3747;48.628;9.058;2022-09-09T14:23:10;24.80;98.30
7411;DHT22;3747;48.628;9.058;2022-09-09T14:25:40;24.90;97.20
7411;DHT22;3747;48.628;9.058;2022-09-09T14:28:10;25.00;97.90
7411;DHT22;3747;48.628;9.058;2022-09-09T14:30:38;24.90;97.30
7411;DHT22;3747;48.628;9.058;2022-09-09T14:33:05;23.90;98.10
7411;DHT22;3747;48.628;9.058;2022-09-09T14:35:32;23.40;98.50
7411;DHT22;3747;48.628;9.058;2022-09-09T14:37:59;23.50;98.30
7411;DHT22;3747;48.628;9.058;2022-09-09T14:40:27;24.00;98.30
7411;DHT22;3747;48.628;9.058;2022-09-09T14:42:54;24.60;98.00
7411;DHT22;3747;48.628;9.058;2022-09-09T14:45:23;24.80;97.80
7411;DHT22;3747;48.628;9.058;2022-09-09T14:47:50;25.40;97.90
7411;DHT22;3747;48.628;9.058;2022-09-09T14:50:17;26.00;97.30
7411;DHT22;3747;48.628;9.058;2022-09-09T14:52:44;26.20;97.30
7411;DHT22;3747;48.628;9.058;2022-09-09T14:55:11;25.80;95.50
7411;DHT22;3747;48.628;9.058;2022-09-09T14:57:37;25.40;96.10
7411;DHT22;3747;48.628;9.058;2022-09-09T15:00:07;24.10;97.60
7411;DHT22;3747;48.628;9.058;2022-09-09T15:02:35;22.70;98.70
7411;DHT22;3747;48.628;9.058;2022-09-09T15:05:08;22.70;99.60
7411;DHT22;3747;48.628;9.058;2022-09-09T15:07:35;23.50;99.90
7411;DHT22;3747;48.628;9.058;2022-09-09T15:10:03;23.80;98.80
7411;DHT22;3747;48.628;9.058;2022-09-09T15:12:30;24.20;98.80
7411;DHT22;3747;48.628;9.058;2022-09-09T15:14:58;24.90;98.90
7411;DHT22;3747;48.628;9.058;2022-09-09T15:17:25;25.40;98.20
7411;DHT22;3747;48.628;9.058;2022-09-09T15:19:53;25.10;97.20
7411;DHT22;3747;48.628;9.058;2022-09-09T15:22:21;25.00;98.40
7411;DHT22;3747;48.628;9.058;2022-09-09T15:24:49;24.60;98.20
7411;DHT22;3747;48.628;9.058;2022-09-09T15:27:16;24.10;97.10
7411;DHT22;3747;48.628;9.058;2022-09-09T15:29:43;23.40;97.30
7411;DHT22;3747;48.628;9.058;2022-09-09T15:32:10;23.70;96.90
7411;DHT22;3747;48.628;9.058;2022-09-09T15:34:37;24.20;97.30
7411;DHT22;3747;48.628;9.058;2022-09-09T15:37:05;23.50;97.40
7411;DHT22;3747;48.628;9.058;2022-09-09T15:39:32;22.20;98.40
7411;DHT22;3747;48.628;9.058;2022-09-09T15:41:59;21.20;98.90
7411;DHT22;3747;48.628;9.058;2022-09-09T15:44:27;20.40;99.70
7411;DHT22;3747;48.628;9.058;2022-09-09T15:46:59;19.70;99.90
7411;DHT22;3747;48.628;9.058;2022-09-09T15:49:26;19.40;99.90
7411;DHT22;3747;48.628;9.058;2022-09-09T15:51:54;19.20;99.90
7411;DHT22;3747;48.628;9.058;2022-09-09T15:54:32;19.10;99.90
7411;DHT22;3747;48.628;9.058;2022-09-09T15:57:01;18.90;99.90
7411;DHT22;3747;48.628;9.058;2022-09-09T15:59:30;18.80;99.90
7411;DHT22;3747;48.628;9.058;2022-09-09T16:01:58;18.70;99.90
7411;DHT22;3747;48.628;9.058;2022-09-09T16:04:25;18.70;99.90
7411;DHT22;3747;48.628;9.058;2022-09-09T16:06:54;18.60;99.90
7411;DHT22;3747;48.628;9.058;2022-09-09T16:09:21;18.60;99.90
7411;DHT22;3747;48.628;9.058;2022-09-09T16:11:50;18.50;99.90
7411;DHT22;3747;48.628;9.058;2022-09-09T16:14:18;18.50;99.90
7411;DHT22;3747;48.628;9.058;2022-09-09T16:16:45;18.40;99.90
7411;DHT22;3747;48.628;9.058;2022-09-09T16:19:12;18.60;99.90
7411;DHT22;3747;48.628;9.058;2022-09-09T16:21:41;18.70;99.90
7411;DHT22;3747;48.628;9.058;2022-09-09T16:24:10;18.70;99.90
7411;DHT22;3747;48.628;9.058;2022-09-09T16:26:42;18.70;99.90
7411;DHT22;3747;48.628;9.058;2022-09-09T16:29:12;18.70;99.90